createdAt,value
2017-08-29T13:14:17.299Z,60.5
2017-08-29T13:15:18.691Z,60.8
2017-08-29T13:16:40.170Z,62.0
2017-08-29T13:17:41.562Z,62.0
2017-08-29T13:19:03.043Z,62.4
2017-08-29T13:20:04.435Z,62.5
2017-08-29T13:21:25.941Z,62.3
2017-08-29T13:22:27.338Z,62.2
2017-08-29T13:23:48.827Z,62.4
2017-08-29T13:24:50.219Z,62.6
2017-08-29T13:26:11.699Z,62.7
2017-08-29T13:27:13.091Z,62.4
2017-08-29T13:28:34.603Z,62.7
2017-08-29T13:29:36.001Z,62.7
2017-08-29T13:30:57.483Z,62.8
2017-08-29T13:31:58.875Z,62.7
2017-08-29T13:33:20.363Z,63.2
2017-08-29T13:34:21.763Z,62.8
2017-08-29T13:35:43.275Z,62.9
2017-08-29T13:36:44.667Z,62.6
2017-08-29T13:38:06.163Z,62.8
2017-08-29T13:39:07.564Z,63.0
2017-08-29T13:40:29.051Z,62.8
2017-08-29T13:41:30.446Z,62.8
2017-08-29T13:42:51.939Z,62.6
2017-08-29T13:43:53.331Z,62.5
2017-08-29T13:45:14.820Z,62.7
2017-08-29T13:46:16.220Z,62.7
2017-08-29T13:47:37.707Z,62.5
2017-08-29T13:48:39.107Z,62.8
2017-08-29T13:50:00.628Z,62.7
2017-08-29T13:51:02.027Z,62.7
2017-08-29T13:52:23.516Z,62.7
2017-08-29T13:53:24.915Z,62.7
2017-08-29T13:54:46.404Z,62.6
2017-08-29T13:55:47.796Z,62.7
2017-08-29T13:57:09.300Z,62.8
2017-08-29T13:58:10.699Z,62.5
2017-08-29T13:59:32.187Z,62.4
2017-08-29T14:00:33.588Z,62.8
2017-08-29T14:01:55.075Z,62.7
2017-08-29T14:02:56.475Z,62.7
2017-08-29T14:04:17.979Z,62.7
2017-08-29T14:05:19.380Z,62.7
2017-08-29T14:06:40.876Z,62.7
2017-08-29T14:07:42.276Z,63.0
2017-08-29T14:09:03.764Z,62.8
2017-08-29T14:10:05.164Z,63.0
2017-08-29T14:11:26.686Z,63.1
2017-08-29T14:12:28.084Z,62.8
2017-08-29T14:13:49.573Z,62.6
2017-08-29T14:14:50.973Z,62.8
2017-08-29T14:16:12.460Z,63.0
2017-08-29T14:17:13.860Z,63.2
2017-08-29T14:18:35.372Z,62.7
2017-08-29T14:19:36.909Z,63.0
2017-08-29T14:20:58.396Z,62.7
2017-08-29T14:21:59.796Z,62.7
2017-08-29T14:23:21.285Z,62.6
2017-08-29T14:24:22.685Z,62.8
2017-08-29T14:25:44.357Z,62.8
2017-08-29T14:26:45.741Z,62.8
2017-08-29T14:28:07.220Z,62.7
2017-08-29T14:29:08.620Z,62.6
2017-08-29T14:30:30.637Z,62.7
2017-08-29T14:31:31.989Z,62.6
2017-08-29T14:32:53.724Z,62.7
2017-08-29T14:33:55.245Z,62.5
2017-08-29T14:35:16.788Z,62.8
2017-08-29T14:36:18.420Z,62.7
2017-08-29T14:37:39.892Z,62.5
2017-08-29T14:38:41.525Z,62.6
2017-08-29T14:40:03.044Z,62.3
2017-08-29T14:41:04.445Z,62.3
2017-08-29T14:42:25.932Z,62.5
2017-08-29T14:43:27.437Z,62.3
2017-08-29T14:44:48.936Z,62.2
2017-08-29T14:45:50.332Z,62.4
2017-08-29T14:47:11.829Z,62.3
2017-08-29T14:48:13.229Z,62.1
2017-08-29T14:49:34.716Z,62.4
2017-08-29T14:50:36.117Z,62.4
2017-08-29T14:51:57.605Z,62.5
2017-08-29T14:52:59.005Z,62.6
2017-08-29T14:54:20.501Z,62.3
2017-08-29T14:55:21.901Z,62.5
2017-08-29T14:56:43.394Z,62.7
2017-08-29T14:57:44.790Z,62.5
2017-08-29T14:59:06.281Z,62.6
2017-08-29T15:00:07.677Z,62.6
2017-08-29T15:01:29.173Z,62.6
2017-08-29T15:02:30.573Z,62.6
2017-08-29T15:03:52.062Z,62.6
2017-08-29T15:04:53.461Z,62.6
2017-08-29T15:06:14.949Z,62.5
2017-08-29T15:07:16.349Z,62.2
2017-08-29T15:08:37.866Z,62.3
2017-08-29T15:09:39.261Z,62.2
2017-08-29T15:11:00.749Z,62.6
2017-08-29T15:12:02.149Z,62.5
2017-08-29T15:13:23.629Z,62.2
2017-08-29T15:14:25.029Z,62.3
2017-08-29T15:15:46.525Z,62.3
2017-08-29T15:16:47.917Z,62.4
2017-08-29T15:18:09.415Z,62.4
2017-08-29T15:19:10.813Z,62.7
2017-08-29T15:20:32.301Z,62.2
2017-08-29T15:21:33.702Z,62.4
2017-08-29T15:22:55.197Z,62.5
2017-08-29T15:23:56.603Z,62.3
2017-08-29T15:25:18.088Z,62.5
2017-08-29T15:26:19.485Z,62.5
2017-08-29T15:27:40.973Z,62.4
2017-08-29T15:28:42.374Z,62.5
2017-08-29T15:30:03.869Z,62.4
2017-08-29T15:31:05.270Z,62.7
2017-08-29T15:32:26.757Z,62.2
2017-08-29T15:33:28.158Z,62.4
2017-08-29T15:34:49.646Z,62.6
2017-08-29T15:35:51.050Z,62.3
2017-08-29T15:37:12.566Z,62.5
2017-08-29T15:38:13.966Z,62.6
2017-08-29T15:39:35.454Z,62.5
2017-08-29T15:40:36.854Z,62.6
2017-08-29T15:41:58.342Z,62.6
2017-08-29T15:42:59.743Z,62.1
2017-08-29T15:44:21.270Z,62.5
2017-08-29T15:45:22.670Z,62.4
2017-08-29T15:46:44.159Z,62.2
2017-08-29T15:47:45.558Z,62.5
2017-08-29T15:49:07.046Z,62.3
2017-08-29T15:50:08.446Z,62.6
2017-08-29T15:51:29.966Z,62.6
2017-08-29T15:52:31.367Z,62.5
2017-08-29T15:53:52.870Z,62.3
2017-08-29T15:54:54.270Z,62.3
2017-08-29T15:56:15.773Z,62.6
2017-08-29T15:57:17.159Z,62.5
2017-08-29T15:58:38.678Z,62.6
2017-08-29T15:59:40.078Z,62.5
2017-08-29T16:01:01.567Z,62.6
2017-08-29T16:02:02.975Z,62.6
2017-08-29T16:03:24.462Z,62.3
2017-08-29T16:04:25.862Z,62.5
2017-08-29T16:05:47.366Z,62.8
2017-08-29T16:06:48.766Z,62.2
2017-08-29T16:08:10.256Z,62.4
2017-08-29T16:09:11.662Z,62.3
2017-08-29T16:10:33.152Z,62.4
2017-08-29T16:11:34.551Z,62.3
2017-08-29T16:12:56.062Z,62.5
2017-08-29T16:13:57.463Z,62.5
2017-08-29T16:15:18.959Z,62.3
2017-08-29T16:16:20.358Z,62.3
2017-08-29T16:17:41.847Z,62.4
2017-08-29T16:18:43.247Z,62.4
2017-08-29T16:20:04.742Z,62.5
2017-08-29T16:21:06.142Z,62.5
2017-08-29T16:22:27.630Z,62.3
2017-08-29T16:23:29.031Z,62.6
2017-08-29T16:24:50.519Z,62.2
2017-08-29T16:25:51.919Z,62.4
2017-08-29T16:27:13.447Z,62.6
2017-08-29T16:28:14.847Z,62.5
2017-08-29T16:29:36.335Z,62.2
2017-08-29T16:30:37.735Z,62.5
2017-08-29T16:31:59.222Z,62.2
2017-08-29T16:33:00.623Z,62.2
2017-08-29T16:34:22.119Z,62.4
2017-08-29T16:35:23.518Z,62.1
2017-08-29T16:36:45.007Z,62.2
2017-08-29T16:37:46.410Z,62.2
2017-08-29T16:39:07.903Z,62.3
2017-08-29T16:40:09.303Z,62.1
2017-08-29T16:41:30.807Z,62.4
2017-08-29T16:42:32.206Z,62.1
2017-08-29T16:43:53.703Z,62.2
2017-08-29T16:44:55.103Z,62.3
2017-08-29T16:46:16.598Z,62.3
2017-08-29T16:47:17.999Z,62.3
2017-08-29T16:48:39.506Z,62.4
2017-08-29T16:49:40.903Z,62.2
2017-08-29T16:51:02.391Z,62.0
2017-08-29T16:52:03.791Z,62.5
2017-08-29T16:53:25.280Z,62.3
2017-08-29T16:54:26.680Z,62.1
2017-08-29T16:55:48.186Z,62.1
2017-08-29T16:56:49.583Z,62.3
2017-08-29T16:58:11.079Z,62.2
2017-08-29T16:59:12.479Z,62.5
2017-08-29T17:00:33.967Z,62.2
2017-08-29T17:01:35.368Z,62.1
2017-08-29T17:02:56.887Z,62.5
2017-08-29T17:03:58.288Z,62.5
2017-08-29T17:05:19.775Z,62.7
2017-08-29T17:06:21.175Z,62.6
2017-08-29T17:07:42.664Z,62.6
2017-08-29T17:08:44.064Z,62.6
2017-08-29T17:10:05.569Z,62.2
2017-08-29T17:11:06.968Z,62.5
2017-08-29T17:12:28.464Z,62.6
2017-08-29T17:13:29.919Z,62.6
2017-08-29T17:14:51.407Z,62.6
2017-08-29T17:15:52.807Z,62.7
2017-08-29T17:17:14.328Z,62.7
2017-08-29T17:18:15.727Z,62.8
2017-08-29T17:19:37.215Z,62.7
2017-08-29T17:20:38.615Z,62.9
2017-08-29T17:22:00.104Z,63.1
2017-08-29T17:23:01.504Z,63.1
2017-08-29T17:24:23.007Z,63.1
2017-08-29T17:25:24.409Z,62.8
2017-08-29T17:26:45.904Z,63.1
2017-08-29T17:27:47.304Z,62.8
2017-08-29T17:29:08.792Z,63.2
2017-08-29T17:30:10.192Z,62.9
2017-08-29T17:31:31.696Z,63.2
2017-08-29T17:32:33.096Z,62.9
2017-08-29T17:33:54.585Z,63.2
2017-08-29T17:34:55.984Z,63.2
2017-08-29T17:36:17.475Z,63.1
2017-08-29T17:37:18.872Z,63.1
2017-08-29T17:38:40.401Z,63.0
2017-08-29T17:39:41.800Z,62.9
2017-08-29T17:41:03.296Z,63.1
2017-08-29T17:42:04.696Z,63.2
2017-08-29T17:43:26.184Z,63.1
2017-08-29T17:44:27.585Z,63.1
2017-08-29T17:45:49.088Z,63.0
2017-08-29T17:46:50.489Z,63.1
2017-08-29T17:48:11.976Z,63.0
2017-08-29T17:49:13.377Z,62.8
2017-08-29T17:50:34.872Z,62.8
2017-08-29T17:51:36.273Z,63.1
2017-08-29T17:52:57.776Z,63.0
2017-08-29T17:53:59.176Z,63.0
2017-08-29T17:55:20.672Z,62.8
2017-08-29T17:56:22.073Z,62.8
2017-08-29T17:57:43.560Z,62.9
2017-08-29T17:58:44.965Z,62.8
2017-08-29T18:00:06.464Z,62.9
2017-08-29T18:01:07.864Z,62.8
2017-08-29T18:02:29.360Z,62.8
2017-08-29T18:03:30.760Z,63.1
2017-08-29T18:04:52.248Z,63.0
2017-08-29T18:05:53.648Z,63.0
2017-08-29T18:07:15.145Z,63.2
2017-08-29T18:08:16.545Z,63.3
2017-08-29T18:09:38.033Z,63.2
2017-08-29T18:10:39.433Z,63.1
2017-08-29T18:12:00.921Z,63.4
2017-08-29T18:13:02.321Z,63.6
2017-08-29T18:14:23.832Z,63.3
2017-08-29T18:15:25.233Z,63.3
2017-08-29T18:16:46.731Z,63.3
2017-08-29T18:17:48.129Z,62.9
2017-08-29T18:19:09.617Z,62.9
2017-08-29T18:20:11.018Z,63.3
2017-08-29T18:21:32.521Z,63.1
2017-08-29T18:22:33.920Z,63.2
2017-08-29T18:23:55.409Z,62.8
2017-08-29T18:24:56.809Z,62.9
2017-08-29T18:26:18.301Z,63.1
2017-08-29T18:27:19.697Z,63.2
2017-08-29T18:28:41.209Z,62.8
2017-08-29T18:29:42.609Z,63.2
2017-08-29T18:31:04.105Z,63.2
2017-08-29T18:32:05.505Z,63.1
2017-08-29T18:33:26.993Z,63.0
2017-08-29T18:34:28.393Z,63.1
2017-08-29T18:35:49.906Z,62.9
2017-08-29T18:36:51.305Z,63.1
2017-08-29T18:38:12.801Z,63.1
2017-08-29T18:39:14.201Z,63.2
2017-08-29T18:40:35.690Z,63.2
2017-08-29T18:41:37.089Z,63.2
2017-08-29T18:42:58.593Z,62.9
2017-08-29T18:43:59.993Z,63.0
2017-08-29T18:45:21.481Z,63.2
2017-08-29T18:46:22.881Z,63.1
2017-08-29T18:47:44.369Z,63.2
2017-08-29T18:48:45.771Z,63.2
2017-08-29T18:50:07.265Z,63.2
2017-08-29T18:51:08.666Z,63.2
2017-08-29T18:52:30.153Z,63.3
2017-08-29T18:53:31.554Z,63.7
2017-08-29T18:54:53.042Z,63.2
2017-08-29T18:55:54.441Z,63.7
2017-08-29T18:57:15.978Z,63.6
2017-08-29T18:58:17.378Z,63.4
2017-08-29T18:59:38.865Z,63.0
2017-08-29T19:00:40.266Z,63.4
2017-08-29T19:02:01.754Z,63.4
2017-08-29T19:03:03.154Z,63.4
2017-08-29T19:04:24.658Z,63.5
2017-08-29T19:05:26.057Z,63.4
2017-08-29T19:06:47.547Z,63.3
2017-08-29T19:07:48.946Z,63.4
2017-08-29T19:09:10.507Z,63.5
2017-08-29T19:10:11.906Z,63.2
2017-08-29T19:11:33.401Z,63.1
2017-08-29T19:12:34.802Z,63.3
2017-08-29T19:13:56.290Z,63.2
2017-08-29T19:14:57.690Z,63.2
2017-08-29T19:16:19.178Z,63.2
2017-08-29T19:17:20.583Z,63.2
2017-08-29T19:18:42.074Z,63.2
2017-08-29T19:19:43.474Z,63.0
2017-08-29T19:21:04.962Z,63.0
2017-08-29T19:22:06.368Z,63.0
2017-08-29T19:23:27.851Z,63.2
2017-08-29T19:24:29.250Z,63.2
2017-08-29T19:25:50.778Z,63.2
2017-08-29T19:26:52.179Z,63.2
2017-08-29T19:28:13.666Z,63.2
2017-08-29T19:29:15.066Z,63.2
2017-08-29T19:30:36.554Z,63.6
2017-08-29T19:31:37.954Z,63.5
2017-08-29T19:32:59.458Z,63.2
2017-08-29T19:34:00.858Z,63.5
2017-08-29T19:35:22.347Z,63.4
2017-08-29T19:36:23.746Z,63.2
2017-08-29T19:37:45.235Z,63.3
2017-08-29T19:38:46.635Z,63.4
2017-08-29T19:40:08.138Z,63.4
2017-08-29T19:41:09.539Z,63.5
2017-08-29T19:42:31.026Z,63.5
2017-08-29T19:43:32.427Z,63.5
2017-08-29T19:44:53.916Z,63.3
2017-08-29T19:45:55.314Z,63.4
2017-08-29T19:47:16.835Z,63.5
2017-08-29T19:48:18.235Z,63.6
2017-08-29T19:49:39.723Z,63.4
2017-08-29T19:50:41.123Z,63.4
2017-08-29T19:52:02.611Z,63.6
2017-08-29T19:53:04.011Z,63.5
2017-08-29T19:54:25.507Z,63.5
2017-08-29T19:55:26.907Z,63.4
2017-08-29T19:56:48.404Z,63.6
2017-08-29T19:57:49.803Z,63.4
2017-08-29T19:59:11.290Z,63.5
2017-08-29T20:00:12.691Z,63.4
2017-08-29T20:01:34.187Z,63.4
2017-08-29T20:02:35.588Z,63.3
2017-08-29T20:03:57.075Z,63.5
2017-08-29T20:04:58.475Z,63.2
2017-08-29T20:06:19.963Z,63.5
2017-08-29T20:07:21.363Z,63.5
2017-08-29T20:08:42.875Z,63.5
2017-08-29T20:09:44.278Z,63.5
2017-08-29T20:11:05.763Z,63.2
2017-08-29T20:12:07.163Z,63.3
2017-08-29T20:13:28.657Z,63.2
2017-08-29T20:14:30.051Z,63.2
2017-08-29T20:15:51.596Z,63.2
2017-08-29T20:16:52.997Z,63.0
2017-08-29T20:18:14.484Z,63.2
2017-08-29T20:19:15.883Z,63.3
2017-08-29T20:20:37.371Z,63.3
2017-08-29T20:21:38.771Z,63.6
2017-08-29T20:23:00.267Z,63.4
2017-08-29T20:24:01.670Z,63.5
2017-08-29T20:25:23.155Z,63.6
2017-08-29T20:26:24.555Z,63.5
2017-08-29T20:27:46.044Z,63.5
2017-08-29T20:28:47.444Z,63.5
2017-08-29T20:30:08.947Z,63.5
2017-08-29T20:31:10.348Z,63.4
2017-08-29T20:32:31.862Z,63.6
2017-08-29T20:33:33.236Z,63.8
2017-08-29T20:34:54.724Z,63.6
2017-08-29T20:35:56.124Z,63.4
2017-08-29T20:37:17.628Z,63.8
2017-08-29T20:38:19.028Z,63.5
2017-08-29T20:39:40.516Z,63.8
2017-08-29T20:40:41.915Z,63.8
2017-08-29T20:42:03.404Z,63.6
2017-08-29T20:43:04.804Z,63.6
2017-08-29T20:44:26.308Z,63.6
2017-08-29T20:45:27.708Z,63.6
2017-08-29T20:46:49.196Z,63.6
2017-08-29T20:47:50.596Z,63.8
2017-08-29T20:49:12.085Z,63.6
2017-08-29T20:50:13.487Z,63.8
2017-08-29T20:51:34.992Z,63.8
2017-08-29T20:52:36.390Z,63.7
2017-08-29T20:53:57.883Z,63.9
2017-08-29T20:54:59.279Z,63.6
2017-08-29T20:56:20.765Z,63.5
2017-08-29T20:57:22.165Z,63.6
2017-08-29T20:58:43.668Z,64.2
2017-08-29T20:59:45.069Z,63.7
2017-08-29T21:01:06.562Z,63.7
2017-08-29T21:02:07.956Z,64.0
2017-08-29T21:03:29.445Z,64.0
2017-08-29T21:04:30.845Z,64.0
2017-08-29T21:05:52.352Z,64.0
2017-08-29T21:06:53.748Z,64.0
2017-08-29T21:08:15.237Z,64.0
2017-08-29T21:09:16.637Z,64.3
2017-08-29T21:10:38.124Z,64.3
2017-08-29T21:11:39.525Z,63.5
2017-08-29T21:13:01.037Z,64.0
2017-08-29T21:14:02.437Z,64.0
2017-08-29T21:15:23.926Z,64.0
2017-08-29T21:16:25.325Z,64.1
2017-08-29T21:17:46.813Z,64.1
2017-08-29T21:18:48.213Z,64.1
2017-08-29T21:20:09.725Z,63.3
2017-08-29T21:21:11.124Z,63.6
2017-08-29T21:22:32.613Z,63.6
2017-08-29T21:23:34.013Z,64.2
2017-08-29T21:24:55.509Z,63.9
2017-08-29T21:25:56.909Z,63.4
2017-08-29T21:27:18.422Z,64.0
2017-08-29T21:28:19.821Z,63.8
2017-08-29T21:29:41.308Z,63.7
2017-08-29T21:30:42.711Z,63.6
2017-08-29T21:32:04.197Z,63.8
2017-08-29T21:33:05.632Z,63.6
2017-08-29T21:34:27.101Z,63.7
2017-08-29T21:35:28.501Z,63.7
2017-08-29T21:36:49.989Z,63.7
2017-08-29T21:37:51.389Z,63.7
2017-08-29T21:39:12.877Z,63.6
2017-08-29T21:40:14.277Z,63.6
2017-08-29T21:41:35.774Z,63.6
2017-08-29T21:42:37.174Z,63.6
2017-08-29T21:43:58.662Z,63.7
2017-08-29T21:45:00.061Z,63.7
2017-08-29T21:46:21.549Z,63.7
2017-08-29T21:47:22.949Z,63.8
2017-08-29T21:48:44.517Z,63.8
2017-08-29T21:49:45.918Z,63.8
2017-08-29T21:51:07.406Z,63.8
2017-08-29T21:52:08.806Z,63.8
2017-08-29T21:53:30.294Z,63.8
2017-08-29T21:54:31.694Z,63.8
2017-08-29T21:55:53.206Z,63.6
2017-08-29T21:56:54.606Z,63.6
2017-08-29T21:58:16.100Z,63.8
2017-08-29T21:59:17.494Z,63.6
2017-08-29T22:00:38.982Z,63.6
2017-08-29T22:01:40.382Z,63.3
2017-08-29T22:03:01.878Z,63.7
2017-08-29T22:04:03.278Z,63.7
2017-08-29T22:05:24.766Z,63.5
2017-08-29T22:06:26.166Z,63.3
2017-08-29T22:07:47.654Z,63.4
2017-08-29T22:08:49.054Z,63.5
2017-08-29T22:10:10.557Z,63.4
2017-08-29T22:11:11.950Z,63.6
2017-08-29T22:12:33.438Z,63.4
2017-08-29T22:13:34.838Z,63.3
2017-08-29T22:14:56.326Z,63.5
2017-08-29T22:15:57.726Z,63.5
2017-08-29T22:17:19.230Z,63.3
2017-08-29T22:18:20.636Z,63.5
2017-08-29T22:19:42.118Z,63.2
2017-08-29T22:20:43.527Z,63.4
2017-08-29T22:22:05.006Z,63.3
2017-08-29T22:23:06.406Z,63.5
2017-08-29T22:24:27.918Z,63.5
2017-08-29T22:25:29.318Z,63.6
2017-08-29T22:26:50.806Z,63.6
2017-08-29T22:27:52.206Z,63.6
2017-08-29T22:29:13.695Z,63.3
2017-08-29T22:30:15.095Z,63.5
2017-08-29T22:31:36.601Z,63.4
2017-08-29T22:32:37.998Z,63.3
2017-08-29T22:33:59.486Z,63.6
2017-08-29T22:35:00.886Z,63.3
2017-08-29T22:36:22.375Z,63.3
2017-08-29T22:37:23.774Z,63.4
2017-08-29T22:38:45.271Z,63.2
2017-08-29T22:39:46.670Z,63.4
2017-08-29T22:41:08.159Z,63.5
2017-08-29T22:42:09.559Z,63.2
2017-08-29T22:43:31.047Z,63.2
2017-08-29T22:44:32.447Z,63.2
2017-08-29T22:45:53.951Z,63.2
2017-08-29T22:46:55.351Z,63.1
2017-08-29T22:48:16.838Z,63.2
2017-08-29T22:49:18.238Z,63.1
2017-08-29T22:50:39.727Z,63.5
2017-08-29T22:51:41.127Z,63.2
2017-08-29T22:53:02.624Z,63.2
2017-08-29T22:54:04.022Z,63.1
2017-08-29T22:55:25.511Z,63.2
2017-08-29T22:56:26.911Z,63.0
2017-08-29T22:57:48.399Z,63.1
2017-08-29T22:58:49.799Z,63.0
2017-08-29T23:00:11.319Z,63.5
2017-08-29T23:01:12.719Z,63.3
2017-08-29T23:02:34.208Z,63.5
2017-08-29T23:03:35.607Z,63.5
2017-08-29T23:04:57.096Z,63.5
2017-08-29T23:05:58.496Z,63.4
2017-08-29T23:07:19.991Z,63.4
2017-08-29T23:08:21.391Z,63.5
2017-08-29T23:09:42.879Z,63.5
2017-08-29T23:10:44.279Z,63.4
2017-08-29T23:12:05.767Z,63.4
2017-08-29T23:13:07.167Z,63.4
2017-08-29T23:14:28.663Z,63.4
2017-08-29T23:15:30.063Z,63.5
2017-08-29T23:16:51.551Z,63.4
2017-08-29T23:17:52.951Z,63.1
2017-08-29T23:19:14.439Z,63.4
2017-08-29T23:20:15.839Z,63.4
2017-08-29T23:21:37.336Z,63.3
2017-08-29T23:22:38.735Z,63.4
2017-08-29T23:24:00.223Z,63.5
2017-08-29T23:25:01.623Z,63.0
2017-08-29T23:26:23.115Z,63.6
2017-08-29T23:27:24.517Z,63.0
2017-08-29T23:28:46.065Z,62.8
2017-08-29T23:29:47.431Z,63.4
2017-08-29T23:31:08.924Z,63.0
2017-08-29T23:32:10.319Z,62.9
2017-08-29T23:33:31.807Z,63.2
2017-08-29T23:34:33.208Z,63.4
2017-08-29T23:35:54.712Z,63.1
2017-08-29T23:36:56.112Z,63.0
2017-08-29T23:38:17.599Z,63.1
2017-08-29T23:39:19.004Z,63.1
2017-08-29T23:40:40.479Z,63.0
2017-08-29T23:41:41.879Z,63.2
2017-08-29T23:43:03.383Z,63.0
2017-08-29T23:44:04.783Z,63.1
2017-08-29T23:45:26.272Z,62.9
2017-08-29T23:46:27.672Z,63.1
2017-08-29T23:47:49.160Z,63.1
2017-08-29T23:48:50.560Z,63.1
2017-08-29T23:50:12.080Z,63.1
2017-08-29T23:51:13.479Z,62.7
2017-08-29T23:52:34.968Z,62.8
2017-08-29T23:53:36.368Z,63.0
2017-08-29T23:54:57.857Z,62.7
2017-08-29T23:55:59.256Z,63.0
2017-08-29T23:57:20.759Z,62.7
2017-08-29T23:58:22.160Z,62.8
2017-08-29T23:59:43.649Z,62.7
